Latest Weather Observations for Townsville

IDQ60801

Issued at 4:42 pm EST Sunday 18 August 2019 (issued every 10 minutes, with the page automatically refreshed every 10 minutes)

About weather observations | Map of weather stations | Latest weather observations for QLD | Other Formats
Station Details ID: 032040 Name: TOWNSVILLE AERO Lat: -19.25 Lon: 146.77 Height: 4.34 m
Data from the previous 72 hours. | See also: Recent months at Townsville
Date/Time
EST
Temp
°C
App
Temp
°C
Dew
Point
°C
Rel
Hum
%
Delta-T
°C
Wind Press
QNH
hPa
Press
MSL
hPa
Rain since
9am
mm
Dir  Spd
km/h
Gust
km/h
Spd
kts
Gust
kts
18/04:30pm 23.5 22.0 16.8 66 4.1 ENE 20 26 11 14 1016.0 1016.0 0.0
18/04:00pm 24.0 21.9 16.3 62 4.7 ENE 22 28 12 15 1016.1 1016.1 0.0
18/03:30pm 24.9 22.5 14.5 52 6.2 ENE 20 28 11 15 1016.1 1016.1 0.0
18/03:00pm 26.2 21.8 6.7 29 10.2 NE 19 26 10 14 1016.2 1016.2 0.0
18/02:30pm 26.0 22.2 9.9 36 8.9 NE 20 32 11 17 1016.5 1016.5 0.0
18/02:00pm 26.4 23.2 11.9 40 8.3 NE 20 30 11 16 1017.1 1017.1 0.0
18/01:30pm 26.5 22.6 8.8 32 9.6 NE 19 28 10 15 1017.7 1017.7 0.0
18/01:00pm 26.2 21.8 7.5 30 9.9 NE 20 26 11 14 1018.1 1018.1 0.0
18/12:30pm 26.8 22.6 8.2 31 10.0 NE 20 26 11 14 1018.4 1018.4 0.0
18/12:00pm 26.1 23.0 8.7 33 9.4 ENE 15 20 8 11 1018.7 1018.7 0.0
18/11:30am 26.1 23.3 8.7 33 9.4 NE 13 19 7 10 1019.1 1019.1 0.0
18/11:00am 25.3 23.6 13.5 48 6.9 NE 15 19 8 10 1019.5 1019.5 0.0
18/10:30am 24.7 23.9 16.2 59 5.2 NE 15 20 8 11 1019.9 1019.9 0.0
18/10:00am 25.2 25.6 16.4 58 5.4 SE 9 15 5 8 1020.1 1020.1 0.0
18/09:30am 23.1 24.0 16.7 67 3.9 S 7 13 4 7 1020.4 1020.4 0.0
18/09:00am 22.1 23.3 16.8 72 3.2 ESE 6 11 3 6 1020.6 1020.6 0.0
18/08:30am 21.0 23.1 16.3 74 2.8 CALM 0 0 0 0 1020.3 1020.3 0.0
18/08:00am 19.6 20.7 16.6 83 1.8 S 6 7 3 4 1020.1 1020.1 0.0
18/07:30am 17.6 18.9 16.1 91 0.9 WNW 4 7 2 4 1019.7 1019.7 0.0
18/07:00am 15.3 16.9 14.8 97 0.3 CALM 0 0 0 0 1019.4 1019.4 0.0
18/06:50am 15.0 16.5 14.6 97 0.2 CALM 0 0 0 0 1019.4 1019.4 0.0
18/06:30am 14.7 16.0 14.2 97 0.3 CALM 0 2 0 1 1019.1 1019.1 0.0
18/06:21am 14.4 14.9 14.0 97 0.2 NW 4 7 2 4 1019.0 1019.0 0.0
18/06:00am 15.0 15.7 14.5 97 0.3 WNW 4 9 2 5 1018.9 1018.9 0.0
18/05:30am 15.1 16.6 14.7 97 0.2 CALM 0 0 0 0 1018.6 1018.6 0.0
18/05:00am 14.2 15.4 13.7 97 0.3 CALM 0 0 0 0 1018.4 1018.4 0.0
18/04:30am 14.7 16.0 14.0 96 0.4 CALM 0 0 0 0 1018.3 1018.3 0.0
18/04:00am 15.1 15.4 14.4 96 0.4 SW 6 7 3 4 1018.2 1018.2 0.0
18/03:30am 15.8 16.1 15.1 96 0.4 W 7 7 4 4 1018.2 1018.2 0.0
18/03:00am 15.2 15.2 14.3 94 0.5 SW 7 7 4 4 1018.5 1018.5 0.0
18/02:30am 15.3 16.5 14.8 97 0.3 SW 2 9 1 5 1018.6 1018.6 0.0
18/02:00am 15.2 16.6 14.5 96 0.4 CALM 0 0 0 0 1018.7 1018.7 0.0
18/01:52am 14.9 16.3 14.4 97 0.3 CALM 0 0 0 0 1018.7 1018.7 0.0
18/01:34am 14.8 15.7 14.1 96 0.4 SE 2 9 1 5 1018.8 1018.8 0.0
18/01:30am 14.9 15.2 14.4 97 0.3 SE 6 9 3 5 1018.7 1018.7 0.0
18/01:00am 17.3 17.1 15.8 91 0.9 SE 11 13 6 7 1018.7 1018.7 0.0
18/12:30am 18.1 18.6 16.6 91 0.9 SE 9 11 5 6 1018.7 1018.7 0.0
18/12:00am 17.5 18.7 16.0 91 0.9 ESE 4 7 2 4 1018.8 1018.8 0.0
 
Date/Time
EST
Temp
°C
App
Temp
°C
Dew
Point
°C
Rel
Hum
%
Delta-T
°C
Wind Press
QNH
hPa
Press
MSL
hPa
Rain since
9am
mm
Dir  Spd
km/h
Gust
km/h
Spd
kts
Gust
kts
17/11:30pm 17.5 19.6 16.3 93 0.7 CALM 0 0 0 0 1018.8 1018.8 0.0
17/11:00pm 17.6 19.9 16.8 95 0.5 CALM 0 0 0 0 1019.0 1019.0 0.0
17/10:30pm 16.8 18.8 15.9 94 0.5 CALM 0 0 0 0 1019.0 1019.0 0.0
17/10:00pm 17.5 19.7 16.5 94 0.6 CALM 0 0 0 0 1018.9 1018.9 0.0
17/09:30pm 18.6 20.9 16.8 89 1.1 CALM 0 0 0 0 1018.8 1018.8 0.0
17/09:00pm 18.5 20.8 16.8 90 1.0 CALM 0 0 0 0 1018.7 1018.7 0.0
17/08:30pm 19.3 21.9 17.5 89 1.1 CALM 0 0 0 0 1018.6 1018.6 0.0
17/08:00pm 19.1 21.6 17.3 89 1.1 CALM 0 0 0 0 1018.5 1018.5 0.0
17/07:30pm 19.3 21.6 16.8 85 1.5 CALM 0 0 0 0 1018.3 1018.3 0.0
17/07:00pm 19.4 20.6 16.9 85 1.5 NNW 6 7 3 4 1017.8 1017.8 0.0
17/06:30pm 20.0 20.7 17.0 83 1.8 NNW 9 11 5 6 1017.6 1017.6 0.0
17/06:00pm 20.9 21.1 16.8 77 2.5 NNW 11 15 6 8 1017.3 1017.3 0.0
17/05:30pm 22.0 21.5 15.8 68 3.7 N 13 17 7 9 1017.1 1017.1 0.0
17/05:00pm 22.8 22.0 15.1 62 4.6 NNW 13 17 7 9 1016.8 1016.8 0.0
17/04:30pm 23.8 22.6 13.9 54 5.8 N 13 19 7 10 1016.6 1016.6 0.0
17/04:00pm 25.7 22.3 10.4 38 8.5 ENE 19 26 10 14 1016.3 1016.3 0.0
17/03:30pm 25.0 22.2 9.9 38 8.3 ENE 15 22 8 12 1016.3 1016.3 0.0
17/03:00pm 24.5 20.8 10.2 40 7.9 ENE 20 26 11 14 1016.5 1016.5 0.0
17/02:30pm 25.0 22.2 14.2 51 6.4 NE 22 28 12 15 1016.8 1016.8 0.0
17/02:00pm 24.7 22.1 14.8 54 5.9 ENE 22 28 12 15 1017.1 1017.1 0.0
17/01:30pm 25.3 22.6 12.9 46 7.2 NE 19 28 10 15 1017.4 1017.4 0.0
17/01:00pm 25.7 22.2 12.3 43 7.7 NE 22 30 12 16 1018.0 1018.0 0.0
17/12:30pm 25.1 22.7 14.3 51 6.4 NE 20 26 11 14 1018.4 1018.4 0.0
17/12:00pm 24.8 23.3 14.3 52 6.2 NE 15 20 8 11 1019.0 1019.0 0.0
17/11:30am 24.5 22.5 14.9 55 5.7 NE 19 24 10 13 1019.7 1019.7 0.0
17/11:00am 25.6 23.7 15.1 52 6.3 NE 19 28 10 15 1020.0 1020.0 0.0
17/10:30am 24.5 22.8 13.7 51 6.3 E 15 24 8 13 1020.3 1020.3 0.0
17/10:00am 24.0 22.9 14.3 54 5.7 E 13 24 7 13 1020.7 1020.7 0.0
17/09:30am 23.0 21.9 15.3 62 4.6 SE 15 20 8 11 1020.8 1020.8 0.0
17/09:00am 22.1 21.4 15.4 65 4.0 SE 13 19 7 10 1020.8 1020.8 0.0
17/08:30am 21.0 20.7 15.4 70 3.3 SE 11 13 6 7 1020.6 1020.6 0.0
17/08:00am 19.2 21.2 16.0 82 1.9 CALM 0 0 0 0 1020.6 1020.6 0.0
17/07:30am 16.7 18.4 15.1 90 0.9 CALM 0 0 0 0 1020.6 1020.6 0.0
17/07:00am 15.8 17.3 14.6 93 0.7 CALM 0 0 0 0 1020.3 1020.3 0.0
17/06:30am 15.1 15.0 14.0 93 0.6 SW 7 7 4 4 1020.0 1020.0 0.0
17/06:00am 14.4 14.2 13.7 96 0.4 WSW 7 9 4 5 1019.6 1019.6 0.0
17/05:30am 13.3 12.8 12.6 95 0.4 NW 7 9 4 5 1019.3 1019.3 0.0
17/05:00am 15.8 15.9 14.4 91 0.8 SSE 7 7 4 4 1019.0 1019.0 0.0
17/04:30am 16.8 16.4 15.2 90 0.9 SSE 11 11 6 6 1018.8 1018.8 0.0
17/04:00am 14.8 14.3 13.7 93 0.6 SE 9 11 5 6 1018.9 1018.9 0.0
17/03:30am 15.2 16.1 14.0 92 0.7 ESE 2 7 1 4 1018.9 1018.9 0.0
17/03:00am 15.8 17.3 14.6 93 0.7 CALM 0 0 0 0 1019.0 1019.0 0.0
17/02:30am 15.5 17.0 14.6 94 0.5 CALM 0 0 0 0 1019.2 1019.2 0.0
17/02:00am 15.2 16.7 14.7 97 0.3 CALM 0 0 0 0 1019.3 1019.3 0.0
17/01:30am 15.5 17.0 14.6 94 0.5 CALM 0 0 0 0 1019.4 1019.4 0.0
17/01:00am 15.7 17.3 14.8 94 0.5 CALM 0 0 0 0 1019.6 1019.6 0.0
17/12:30am 15.8 17.4 14.9 94 0.5 CALM 0 0 0 0 1019.7 1019.7 0.0
17/12:00am 16.8 18.5 15.2 90 0.9 CALM 0 0 0 0 1019.9 1019.9 0.0
 
Date/Time
EST
Temp
°C
App
Temp
°C
Dew
Point
°C
Rel
Hum
%
Delta-T
°C
Wind Press
QNH
hPa
Press
MSL
hPa
Rain since
9am
mm
Dir  Spd
km/h
Gust
km/h
Spd
kts
Gust
kts
16/11:30pm 17.9 18.6 15.5 86 1.4 SE 6 7 3 4 1019.9 1019.9 0.0
16/11:00pm 17.6 17.7 15.4 87 1.3 SE 9 11 5 6 1020.0 1020.0 0.0
16/10:30pm 18.4 18.6 14.6 78 2.2 SE 7 9 4 5 1020.1 1020.1 0.0
16/10:00pm 19.6 19.8 15.7 78 2.3 ESE 9 11 5 6 1020.3 1020.3 0.0
16/09:30pm 19.5 20.1 15.8 79 2.2 E 7 9 4 5 1020.3 1020.3 0.0
16/09:00pm 19.8 20.2 16.3 80 2.1 E 9 11 5 6 1020.2 1020.2 0.0
16/08:30pm 20.0 20.3 16.1 78 2.3 E 9 11 5 6 1020.1 1020.1 0.0
16/08:00pm 20.2 20.6 16.2 78 2.4 E 9 13 5 7 1019.8 1019.8 0.0
16/07:30pm 20.6 20.5 16.1 75 2.7 E 11 17 6 9 1019.4 1019.4 0.0
16/07:00pm 20.6 20.4 16.6 78 2.4 ESE 13 17 7 9 1019.1 1019.1 0.0
16/06:30pm 20.8 20.3 17.0 79 2.3 E 15 19 8 10 1018.8 1018.8 0.0
16/06:00pm 21.2 20.4 17.1 77 2.5 ENE 17 26 9 14 1018.5 1018.5 0.0
16/05:30pm 21.9 20.6 16.8 73 3.1 ENE 19 26 10 14 1018.4 1018.4 0.0
16/05:00pm 22.9 20.6 16.7 68 3.8 ENE 24 30 13 16 1018.2 1018.2 0.0
16/04:30pm 23.2 20.9 16.6 66 4.0 ENE 24 32 13 17 1018.1 1018.1 0.0
16/04:00pm 23.8 20.8 16.8 65 4.3 ENE 28 35 15 19 1018.0 1018.0 0.0
16/03:30pm 23.9 20.1 16.7 64 4.4 ENE 32 39 17 21 1018.0 1018.0 0.0
16/03:00pm 24.1 20.8 17.0 64 4.4 ENE 30 37 16 20 1018.2 1018.2 0.0
16/02:30pm 24.7 21.7 16.7 61 4.9 ENE 28 37 15 20 1018.4 1018.4 0.0
16/02:00pm 24.0 20.4 16.3 62 4.7 ENE 30 35 16 19 1018.7 1018.7 0.0
16/01:30pm 24.8 21.7 15.7 57 5.5 ENE 26 32 14 17 1019.1 1019.1 0.0
16/01:00pm 24.7 20.8 15.4 56 5.6 ENE 30 37 16 20 1019.5 1019.5 0.0
16/12:30pm 25.5 21.0 14.8 51 6.4 ENE 32 39 17 21 1019.9 1019.9 0.0
16/12:00pm 25.5 21.7 14.6 51 6.5 E 28 39 15 21 1020.2 1020.2 0.0
16/11:30am 25.6 21.7 14.5 50 6.6 ESE 28 35 15 19 1020.8 1020.8 0.0
16/11:00am 25.6 22.6 14.9 51 6.4 ESE 24 32 13 17 1021.2 1021.2 0.0
16/10:30am 25.0 21.2 14.8 53 6.1 ESE 28 33 15 18 1021.6 1021.6 0.0
16/10:00am 24.5 21.2 14.9 55 5.7 ESE 26 39 14 21 1021.8 1021.8 0.0
16/09:30am 23.6 19.9 15.0 58 5.1 ESE 28 35 15 19 1022.0 1022.0 0.0
16/09:00am 23.7 20.1 15.3 59 5.0 ESE 28 35 15 19 1021.9 1021.9 0.0
16/08:30am 23.0 19.6 15.7 63 4.4 SE 28 37 15 20 1021.7 1021.7 0.0
16/08:00am 21.7 19.1 15.8 69 3.5 ESE 24 32 13 17 1021.5 1021.5 0.0
16/07:30am 20.9 19.7 16.2 74 2.8 SE 17 26 9 14 1021.3 1021.3 0.0
16/07:00am 20.7 19.5 16.2 75 2.7 SE 17 28 9 15 1021.1 1021.1 0.0
16/06:30am 20.4 20.1 16.4 78 2.4 SE 13 19 7 10 1020.9 1020.9 0.0
16/06:00am 20.0 20.4 16.3 79 2.2 SE 9 11 5 6 1020.7 1020.7 0.0
16/05:30am 20.1 20.2 16.6 80 2.1 SE 11 13 6 7 1020.5 1020.5 0.0
16/05:00am 20.2 20.8 16.9 81 2.0 SE 9 13 5 7 1020.3 1020.3 0.0
16/04:30am 20.1 20.7 16.8 81 2.0 SE 9 13 5 7 1020.2 1020.2 0.0
16/04:00am 19.8 20.0 16.8 83 1.8 SE 11 15 6 8 1020.1 1020.1 0.0
16/03:30am 20.1 19.9 16.8 81 2.0 SE 13 19 7 10 1020.1 1020.1 0.0
16/03:00am 19.8 19.7 17.0 84 1.7 SE 13 17 7 9 1020.2 1020.2 0.0
16/02:30am 19.8 19.3 17.0 84 1.7 SE 15 20 8 11 1020.3 1020.3 0.0
16/02:00am 19.9 19.8 16.9 83 1.8 SE 13 19 7 10 1020.4 1020.4 0.0
16/01:30am 19.8 19.7 17.0 84 1.7 SE 13 17 7 9 1020.7 1020.7 0.0
16/01:00am 19.8 19.3 17.0 84 1.7 SE 15 17 8 9 1021.1 1021.1 0.0
16/12:30am 20.3 19.8 16.8 80 2.1 ESE 15 19 8 10 1021.4 1021.4 0.0
16/12:00am 20.3 20.1 16.8 80 2.1 ESE 13 17 7 9 1021.8 1021.8 0.0
 
Date/Time
EST
Temp
°C
App
Temp
°C
Dew
Point
°C
Rel
Hum
%
Delta-T
°C
Wind Press
QNH
hPa
Press
MSL
hPa
Rain since
9am
mm
Dir  Spd
km/h
Gust
km/h
Spd
kts
Gust
kts
15/11:30pm 20.3 20.1 16.8 80 2.1 SE 13 17 7 9 1021.8 1021.8 0.0
15/11:00pm 20.4 19.9 16.8 80 2.2 SE 15 17 8 9 1021.9 1021.9 0.0
15/10:30pm 20.3 20.1 16.6 79 2.2 ESE 13 17 7 9 1022.1 1022.1 0.0
15/10:00pm 20.5 20.3 16.7 79 2.3 SE 13 20 7 11 1022.1 1022.1 0.0
15/09:30pm 20.7 19.7 16.6 77 2.5 ESE 17 20 9 11 1021.9 1021.9 0.0
15/09:00pm 20.9 19.5 16.6 76 2.6 ESE 19 28 10 15 1021.8 1021.8 0.0
15/08:30pm 21.0 19.6 16.9 77 2.5 ESE 20 30 11 16 1021.5 1021.5 0.0
15/08:00pm 21.2 19.8 17.1 77 2.5 ESE 20 28 11 15 1021.2 1021.2 0.0
15/07:30pm 21.4 19.5 16.8 75 2.8 ESE 22 30 12 16 1020.8 1020.8 0.0
15/07:00pm 21.6 20.1 16.8 74 2.9 ESE 20 30 11 16 1020.7 1020.7 0.0
15/06:30pm 21.7 19.8 16.6 73 3.1 ESE 22 39 12 21 1020.4 1020.4 0.0
15/06:00pm 22.1 19.7 16.5 70 3.4 ESE 24 32 13 17 1020.3 1020.3 0.0
15/05:30pm 22.5 20.2 16.6 69 3.6 ESE 24 33 13 18 1020.0 1020.0 0.0
15/05:00pm 22.9 19.7 16.3 66 4.0 E 28 35 15 19 1019.8 1019.8 0.0

Other formats

Comma delimited format used in spreadsheet applications
http://www.bom.gov.au/fwo/IDQ60801/IDQ60801.94294.axf

JavaScript Object Notation format (JSON) in row-major order
http://www.bom.gov.au/fwo/IDQ60801/IDQ60801.94294.json

Data quality

Most of these data are generated automatically and are frequently updated. Quality checks on data are not normally performed. It is possible for incorrect values to appear. Refer to information at About Latest Weather Observations and please check the disclaimer before using these data.